^^
Station Historical Data
Daily Summary for May 18, 2019 Units:  English    Metric   Both
« Previous Day
Next Day »
Daily Weekly Monthly Yearly Custom
  High: Low: Average:
Temperature: 44.3 °F 37 °F 40.5 °F
Dew Point: 38.7 °F 33.7 °F 37 °F
Humidity: 94% 66% 87%
Wind Speed: 30mph 2mph 15.8mph
Wind Gust: 38mph - -
Wind- - NE
Pressure: 29.95 in 29.69 in -
Precipitation: 0.56 in    
Historical Graphs
 
 
Tabular Data for May 18, 2019
Time Temperature Dew Point Pressure Wind Wind Speed Wind Gust Humidity Rainfall Rate (Hourly) solar Conditions
00:04 42.1 °F 38.5 °F 29.77 in NE 23 mph 23 mph 87% 0.02 in 0.00 W/m2
00:09 42.1 °F 38.5 °F 29.77 in NE 11 mph 24 mph 87% 0.02 in 0.00 W/m2
00:14 42.1 °F 38.5 °F 29.77 in NE 13 mph 24 mph 87% 0.02 in 0.00 W/m2
00:19 42.1 °F 38.2 °F 29.76 in ENE 14 mph 22 mph 86% 0.01 in 0.00 W/m2
00:24 42.2 °F 38.3 °F 29.76 in ENE 13 mph 24 mph 86% 0.01 in 0.00 W/m2
00:29 42.1 °F 38.2 °F 29.77 in NE 13 mph 25 mph 86% 0.02 in 0.00 W/m2
00:34 42 °F 38.1 °F 29.77 in NNE 12 mph 25 mph 86% 0.02 in 0.00 W/m2
00:39 41.8 °F 37.9 °F 29.77 in NE 18 mph 25 mph 86% 0.03 in 0.00 W/m2
00:44 41.5 °F 37.6 °F 29.77 in NE 11 mph 25 mph 86% 0.04 in 0.00 W/m2
00:49 41.4 °F 37.8 °F 29.77 in ENE 13 mph 25 mph 87% 0.03 in 0.00 W/m2
00:54 41.3 °F 37.7 °F 29.77 in NE 16 mph 23 mph 87% 0.03 in 0.00 W/m2
00:59 41.1 °F 37.5 °F 29.76 in NE 15 mph 23 mph 87% 0.04 in 0.00 W/m2
01:04 41.1 °F 37.8 °F 29.76 in NE 17 mph 21 mph 88% 0.04 in 0.00 W/m2
01:09 41 °F 38 °F 29.75 in NE 12 mph 21 mph 89% 0.05 in 0.00 W/m2
01:14 40.9 °F 37.9 °F 29.75 in NE 17 mph 21 mph 89% 0.05 in 0.00 W/m2
01:19 40.9 °F 37.9 °F 29.74 in NE 12 mph 23 mph 89% 0.05 in 0.00 W/m2
01:24 41 °F 38.3 °F 29.74 in NE 14 mph 23 mph 90% 0.06 in 0.00 W/m2
01:29 41 °F 38.3 °F 29.73 in ENE 20 mph 29 mph 90% 0.05 in 0.00 W/m2
01:34 41.1 °F 38.1 °F 29.73 in NE 19 mph 29 mph 89% 0.06 in 0.00 W/m2
01:39 41.2 °F 38.2 °F 29.73 in NE 13 mph 29 mph 89% 0.05 in 0.00 W/m2
01:44 41.1 °F 38.4 °F 29.73 in NE 18 mph 29 mph 90% 0.05 in 0.00 W/m2
01:49 41.1 °F 38.4 °F 29.73 in NE 17 mph 30 mph 90% 0.05 in 0.00 W/m2
01:54 41.2 °F 38.5 °F 29.74 in NE 21 mph 30 mph 90% 0.05 in 0.00 W/m2
01:59 41.2 °F 38.5 °F 29.73 in NE 13 mph 25 mph 90% 0.05 in 0.00 W/m2
02:04 41.2 °F 38.5 °F 29.73 in NE 20 mph 25 mph 90% 0.05 in 0.00 W/m2
02:09 41.3 °F 38.6 °F 29.73 in NE 23 mph 27 mph 90% 0.05 in 0.00 W/m2
02:14 41.3 °F 38.6 °F 29.74 in NE 18 mph 27 mph 90% 0.05 in 0.00 W/m2
02:19 41.4 °F 38.7 °F 29.74 in NE 19 mph 27 mph 90% 0.05 in 0.00 W/m2
02:24 41.4 °F 38.7 °F 29.73 in ENE 18 mph 27 mph 90% 0.06 in 0.00 W/m2
02:29 41.4 °F 38.7 °F 29.73 in ENE 18 mph 29 mph 90% 0.05 in 0.00 W/m2
02:34 41.4 °F 38.7 °F 29.73 in NE 16 mph 29 mph 90% 0.06 in 0.00 W/m2
02:39 41.3 °F 38.6 °F 29.73 in NE 15 mph 29 mph 90% 0.06 in 0.00 W/m2
02:44 41.3 °F 38.6 °F 29.72 in NNE 14 mph 29 mph 90% 0.07 in 0.00 W/m2
02:49 41.2 °F 38.5 °F 29.72 in ENE 13 mph 24 mph 90% 0.07 in 0.00 W/m2
02:54 41.1 °F 38.4 °F 29.71 in NE 14 mph 24 mph 90% 0.08 in 0.00 W/m2
02:59 41 °F 38.3 °F 29.71 in NNE 16 mph 23 mph 90% 0.07 in 0.00 W/m2
03:04 40.9 °F 38.5 °F 29.71 in NE 13 mph 23 mph 91% 0.08 in 0.00 W/m2
03:09 40.7 °F 38.3 °F 29.71 in NNE 10 mph 23 mph 91% 0.07 in 0.00 W/m2
03:14 40.6 °F 38.2 °F 29.70 in ENE 19 mph 24 mph 91% 0.07 in 0.00 W/m2
03:19 40.4 °F 38 °F 29.71 in NE 16 mph 26 mph 91% 0.07 in 0.00 W/m2
03:24 40.5 °F 38.1 °F 29.70 in NE 18 mph 26 mph 91% 0.06 in 0.00 W/m2
03:29 40.5 °F 38.1 °F 29.71 in NE 11 mph 26 mph 91% 0.06 in 0.00 W/m2
03:34 40.7 °F 38.3 °F 29.70 in NE 22 mph 26 mph 91% 0.05 in 0.00 W/m2
03:39 40.9 °F 38.5 °F 29.70 in NE 18 mph 28 mph 91% 0.04 in 0.00 W/m2
03:44 41.1 °F 38.4 °F 29.70 in NE 20 mph 28 mph 90% 0.03 in 0.00 W/m2
03:49 41.3 °F 38.6 °F 29.70 in NE 20 mph 30 mph 90% 0.03 in 0.00 W/m2
03:54 41.4 °F 38.7 °F 29.71 in NE 13 mph 30 mph 90% 0.02 in 0.00 W/m2
03:59 41.4 °F 38.7 °F 29.71 in NNE 19 mph 30 mph 90% 0.02 in 0.00 W/m2
04:04 41.4 °F 38.4 °F 29.71 in NNE 23 mph 30 mph 89% 0.02 in 0.00 W/m2
04:09 41.4 °F 38.4 °F 29.70 in NE 16 mph 29 mph 89% 0.02 in 0.00 W/m2
04:14 41.3 °F 38.3 °F 29.70 in NE 19 mph 29 mph 89% 0.03 in 0.00 W/m2
04:19 41.3 °F 38.3 °F 29.70 in NE 17 mph 28 mph 89% 0.02 in 0.00 W/m2
04:24 41.2 °F 38.2 °F 29.70 in NE 17 mph 29 mph 89% 0.02 in 0.00 W/m2
04:29 41.1 °F 38.1 °F 29.70 in NE 16 mph 29 mph 89% 0.02 in 0.00 W/m2
04:34 41.2 °F 38.2 °F 29.70 in NE 24 mph 31 mph 89% 0.03 in 0.00 W/m2
04:39 41.2 °F 38.2 °F 29.71 in NNE 12 mph 31 mph 89% 0.04 in 0.00 W/m2
04:44 41.2 °F 38.2 °F 29.70 in NE 21 mph 31 mph 89% 0.04 in 0.00 W/m2
04:49 41.1 °F 38.4 °F 29.70 in NE 16 mph 31 mph 90% 0.05 in 0.00 W/m2
04:54 41 °F 38.3 °F 29.69 in NNE 15 mph 28 mph 90% 0.06 in 0.00 W/m2
04:59 40.9 °F 38.2 °F 29.70 in NE 25 mph 28 mph 90% 0.06 in 0.00 W/m2
05:04 40.8 °F 38.1 °F 29.70 in NE 21 mph 32 mph 90% 0.05 in 0.00 W/m2
05:09 40.7 °F 38 °F 29.70 in NE 25 mph 32 mph 90% 0.06 in 0.00 W/m2
05:14 40.6 °F 37.9 °F 29.70 in NE 12 mph 32 mph 90% 0.05 in 0.00 W/m2
05:19 40.5 °F 37.8 °F 29.71 in NE 13 mph 32 mph 90% 0.06 in 0.00 W/m2
05:24 40.4 °F 37.7 °F 29.71 in NNE 18 mph 23 mph 90% 0.06 in 0.00 W/m2
05:29 40.3 °F 37.9 °F 29.71 in NNE 17 mph 25 mph 91% 0.06 in 0.00 W/m2
05:34 40.2 °F 37.8 °F 29.71 in NE 12 mph 25 mph 91% 0.05 in 0.00 W/m2
05:39 40 °F 37.6 °F 29.71 in NNE 12 mph 25 mph 91% 0.04 in 0.00 W/m2
05:44 39.8 °F 37.4 °F 29.70 in NNE 21 mph 27 mph 91% 0.04 in 0.00 W/m2
05:49 39.7 °F 37.3 °F 29.70 in NE 16 mph 27 mph 91% 0.03 in 0.00 W/m2
05:54 39.7 °F 37.3 °F 29.70 in NNE 17 mph 28 mph 91% 0.02 in 0.00 W/m2
05:59 39.6 °F 37.2 °F 29.70 in NE 22 mph 30 mph 91% 0.02 in 0.00 W/m2
06:04 39.5 °F 37.1 °F 29.70 in NE 13 mph 30 mph 91% 0.01 in 0.00 W/m2
06:09 39.4 °F 36.7 °F 29.70 in NE 20 mph 29 mph 90% 0.01 in 0.00 W/m2
06:14 39.3 °F 36.6 °F 29.71 in NE 26 mph 29 mph 90% 0.01 in 0.00 W/m2
06:19 39.2 °F 36.5 °F 29.71 in NNE 14 mph 31 mph 90% 0 in 0.00 W/m2
06:24 39.1 °F 36.4 °F 29.72 in NNE 13 mph 31 mph 90% 0 in 0.00 W/m2
06:29 39 °F 36.3 °F 29.72 in NNE 21 mph 32 mph 90% 0 in 0.00 W/m2
06:34 38.9 °F 36.2 °F 29.72 in NNE 15 mph 32 mph 90% 0 in 0.00 W/m2
06:39 38.7 °F 36 °F 29.72 in NE 25 mph 32 mph 90% 0 in 5.00 W/m2
06:44 38.5 °F 35.8 °F 29.73 in NNE 16 mph 32 mph 90% 0.01 in 5.00 W/m2
06:49 38.3 °F 35.6 °F 29.73 in NE 19 mph 30 mph 90% 0.01 in 5.00 W/m2
06:54 38.1 °F 35.4 °F 29.73 in NE 19 mph 30 mph 90% 0.01 in 7.00 W/m2
06:59 38 °F 35.6 °F 29.74 in NNE 13 mph 30 mph 91% 0.02 in 7.00 W/m2
07:04 37.9 °F 35.5 °F 29.74 in NNE 14 mph 30 mph 91% 0.02 in 7.00 W/m2
07:09 37.7 °F 35.3 °F 29.75 in NNE 10 mph 30 mph 91% 0.03 in 7.00 W/m2
07:14 37.5 °F 35.1 °F 29.75 in NE 18 mph 30 mph 91% 0.03 in 7.00 W/m2
07:19 37.4 °F 35 °F 29.75 in NNE 18 mph 27 mph 91% 0.04 in 7.00 W/m2
07:24 37.1 °F 34.7 °F 29.75 in NNE 11 mph 27 mph 91% 0.04 in 9.00 W/m2
07:29 37.1 °F 34.7 °F 29.75 in NNE 11 mph 27 mph 91% 0.05 in 14.00 W/m2
07:34 37 °F 34.9 °F 29.75 in NNE 14 mph 27 mph 92% 0.05 in 16.00 W/m2
07:39 37 °F 34.9 °F 29.75 in NE 12 mph 26 mph 92% 0.05 in 16.00 W/m2
07:44 37 °F 34.9 °F 29.75 in ENE 21 mph 26 mph 92% 0.05 in 16.00 W/m2
07:49 37 °F 34.9 °F 29.75 in NNE 12 mph 25 mph 92% 0.05 in 14.00 W/m2
07:54 37 °F 34.9 °F 29.75 in North 18 mph 26 mph 92% 0.05 in 16.00 W/m2
07:59 37.1 °F 35 °F 29.76 in NNE 13 mph 26 mph 92% 0.04 in 19.00 W/m2
08:04 37.2 °F 35.1 °F 29.76 in NNE 19 mph 26 mph 92% 0.04 in 21.00 W/m2
08:09 37.3 °F 35.2 °F 29.75 in NNE 14 mph 28 mph 92% 0.03 in 28.00 W/m2
08:14 37.4 °F 35.3 °F 29.75 in NE 19 mph 28 mph 92% 0.04 in 39.00 W/m2
08:19 37.5 °F 35.4 °F 29.75 in NNE 17 mph 29 mph 92% 0.04 in 42.00 W/m2
08:24 37.7 °F 35.6 °F 29.75 in NNE 21 mph 29 mph 92% 0.04 in 53.00 W/m2
08:29 37.8 °F 35.7 °F 29.75 in NE 19 mph 28 mph 92% 0.04 in 53.00 W/m2
08:34 38 °F 36.2 °F 29.74 in NE 22 mph 29 mph 93% 0.04 in 46.00 W/m2
08:39 38.2 °F 36.4 °F 29.74 in NNE 28 mph 30 mph 93% 0.05 in 46.00 W/m2
08:44 38.4 °F 36.6 °F 29.74 in NNE 16 mph 33 mph 93% 0.04 in 49.00 W/m2
08:49 38.7 °F 36.9 °F 29.74 in NE 26 mph 33 mph 93% 0.05 in 44.00 W/m2
08:54 38.8 °F 36.9 °F 29.74 in NNE 17 mph 33 mph 93% 0.06 in 40.00 W/m2
08:59 38.9 °F 37 °F 29.74 in NE 23 mph 32 mph 93% 0.06 in 47.00 W/m2
09:04 39 °F 37.1 °F 29.74 in NE 27 mph 33 mph 93% 0.06 in 42.00 W/m2
09:09 39.1 °F 37.2 °F 29.74 in NE 30 mph 36 mph 93% 0.06 in 49.00 W/m2
09:14 39.1 °F 37 °F 29.74 in NNE 26 mph 36 mph 92% 0.07 in 37.00 W/m2
09:19 39.1 °F 37 °F 29.74 in NE 23 mph 33 mph 92% 0.06 in 63.00 W/m2
09:24 39.2 °F 37.1 °F 29.74 in NNE 21 mph 33 mph 92% 0.06 in 69.00 W/m2
09:29 39.3 °F 37.2 °F 29.74 in NNE 18 mph 33 mph 92% 0.06 in 53.00 W/m2
09:34 39.2 °F 37.1 °F 29.74 in NE 29 mph 38 mph 92% 0.05 in 44.00 W/m2
09:39 39.1 °F 37 °F 29.75 in NNE 25 mph 38 mph 92% 0.06 in 44.00 W/m2
09:44 39 °F 36.9 °F 29.74 in NNE 30 mph 35 mph 92% 0.06 in 46.00 W/m2
09:49 39.1 °F 37 °F 29.74 in NNE 12 mph 35 mph 92% 0.05 in 65.00 W/m2
09:54 39.1 °F 36.7 °F 29.75 in NNE 19 mph 33 mph 91% 0.05 in 65.00 W/m2
09:59 39.1 °F 36.7 °F 29.75 in North 19 mph 33 mph 91% 0.06 in 72.00 W/m2
10:04 39.2 °F 37.1 °F 29.75 in NE 18 mph 32 mph 92% 0.06 in 67.00 W/m2
10:09 39.3 °F 37.2 °F 29.76 in NNE 21 mph 32 mph 92% 0.06 in 65.00 W/m2
10:14 39.2 °F 37.1 °F 29.77 in NNE 12 mph 32 mph 92% 0.05 in 58.00 W/m2
10:19 39.2 °F 36.8 °F 29.77 in North 13 mph 32 mph 91% 0.05 in 56.00 W/m2
10:24 39.1 °F 36.7 °F 29.77 in North 18 mph 30 mph 91% 0.06 in 53.00 W/m2
10:29 38.8 °F 36.4 °F 29.77 in North 16 mph 30 mph 91% 0.05 in 74.00 W/m2
10:34 38.7 °F 36.6 °F 29.77 in NNE 27 mph 31 mph 92% 0.05 in 86.00 W/m2
10:39 38.6 °F 36.5 °F 29.77 in NE 18 mph 31 mph 92% 0.04 in 91.00 W/m2
10:44 38.4 °F 36.3 °F 29.77 in NE 30 mph 31 mph 92% 0.04 in 93.00 W/m2
10:49 38.2 °F 36.1 °F 29.77 in NNE 17 mph 31 mph 92% 0.04 in 93.00 W/m2
10:54 38.1 °F 36 °F 29.78 in NNE 12 mph 27 mph 92% 0.03 in 100.00 W/m2
10:59 38 °F 35.9 °F 29.78 in NNE 17 mph 26 mph 92% 0.03 in 104.00 W/m2
11:04 37.9 °F 36.1 °F 29.77 in NNE 14 mph 31 mph 93% 0.03 in 105.00 W/m2
11:09 37.9 °F 36.1 °F 29.77 in NNE 20 mph 31 mph 93% 0.02 in 116.00 W/m2
11:14 37.9 °F 36.1 °F 29.77 in NNE 22 mph 31 mph 93% 0.03 in 123.00 W/m2
11:19 38 °F 36.2 °F 29.78 in NNE 12 mph 31 mph 93% 0.03 in 113.00 W/m2
11:24 38 °F 36.2 °F 29.78 in North 19 mph 27 mph 93% 0.02 in 102.00 W/m2
11:29 37.9 °F 36.1 °F 29.79 in NNE 18 mph 27 mph 93% 0.02 in 90.00 W/m2
11:34 37.8 °F 36 °F 29.79 in NNE 14 mph 33 mph 93% 0.02 in 100.00 W/m2
11:39 37.9 °F 36.1 °F 29.80 in North 24 mph 33 mph 93% 0.02 in 107.00 W/m2
11:44 37.9 °F 36.1 °F 29.80 in NNE 16 mph 33 mph 93% 0.03 in 114.00 W/m2
11:49 37.9 °F 36.1 °F 29.80 in NNE 18 mph 33 mph 93% 0.03 in 121.00 W/m2
11:54 37.8 °F 36.2 °F 29.80 in NNE 21 mph 31 mph 94% 0.03 in 125.00 W/m2
11:59 37.8 °F 36.2 °F 29.81 in NNE 19 mph 31 mph 94% 0.02 in 132.00 W/m2
12:04 37.9 °F 36.3 °F 29.80 in NNE 25 mph 31 mph 94% 0.02 in 185.00 W/m2
12:09 38 °F 36.4 °F 29.81 in NNE 21 mph 31 mph 94% 0.02 in 167.00 W/m2
12:14 37.9 °F 36.3 °F 29.81 in NNE 13 mph 31 mph 94% 0.01 in 135.00 W/m2
12:19 37.8 °F 36 °F 29.81 in NNE 18 mph 30 mph 93% 0.01 in 113.00 W/m2
12:24 37.7 °F 35.9 °F 29.80 in NNE 16 mph 34 mph 93% 0.01 in 130.00 W/m2
12:29 37.7 °F 35.9 °F 29.81 in North 19 mph 34 mph 93% 0.01 in 149.00 W/m2
12:34 37.9 °F 36.3 °F 29.81 in NNE 19 mph 29 mph 94% 0.01 in 167.00 W/m2
12:39 38 °F 36.4 °F 29.82 in NNE 13 mph 31 mph 94% 0.02 in 118.00 W/m2
12:44 38.1 °F 36.5 °F 29.82 in NNE 18 mph 31 mph 94% 0.01 in 172.00 W/m2
12:49 38.4 °F 36.8 °F 29.81 in NNE 20 mph 31 mph 94% 0.01 in 141.00 W/m2
12:54 38.6 °F 37 °F 29.82 in NNE 21 mph 31 mph 94% 0.01 in 179.00 W/m2
12:59 38.7 °F 37.1 °F 29.83 in NE 15 mph 31 mph 94% 0.01 in 104.00 W/m2
13:04 38.7 °F 37.1 °F 29.83 in NNE 14 mph 31 mph 94% 0.01 in 107.00 W/m2
13:09 38.6 °F 37 °F 29.82 in NE 17 mph 32 mph 94% 0.01 in 130.00 W/m2
13:14 38.7 °F 37.1 °F 29.82 in NNE 16 mph 32 mph 94% 0.01 in 185.00 W/m2
13:19 38.6 °F 37 °F 29.82 in NNE 11 mph 32 mph 94% 0.01 in 153.00 W/m2
13:24 38.8 °F 37.2 °F 29.82 in NNE 15 mph 32 mph 94% 0.01 in 149.00 W/m2
13:29 38.8 °F 36.9 °F 29.82 in North 22 mph 30 mph 93% 0.02 in 146.00 W/m2
13:34 38.8 °F 36.9 °F 29.82 in NNE 12 mph 30 mph 93% 0.02 in 135.00 W/m2
13:39 38.9 °F 37 °F 29.82 in NNE 16 mph 31 mph 93% 0.01 in 141.00 W/m2
13:44 39 °F 37.1 °F 29.81 in NNE 14 mph 33 mph 93% 0.01 in 139.00 W/m2
13:49 38.9 °F 37 °F 29.81 in NNE 18 mph 33 mph 93% 0.01 in 156.00 W/m2
13:54 39.2 °F 37.6 °F 29.81 in North 17 mph 33 mph 94% 0.02 in 179.00 W/m2
13:59 39.4 °F 37.5 °F 29.81 in NNE 24 mph 33 mph 93% 0.02 in 179.00 W/m2
14:04 39.3 °F 37.4 °F 29.81 in NNE 16 mph 33 mph 93% 0.02 in 135.00 W/m2
14:09 39.4 °F 37.5 °F 29.81 in NE 13 mph 33 mph 93% 0.02 in 76.00 W/m2
14:14 39.3 °F 37.4 °F 29.82 in NNE 19 mph 33 mph 93% 0.02 in 91.00 W/m2
14:19 39.2 °F 37.3 °F 29.82 in NNE 22 mph 29 mph 93% 0.02 in 72.00 W/m2
14:24 39.1 °F 37.2 °F 29.82 in NNE 28 mph 31 mph 93% 0.02 in 74.00 W/m2
14:29 39.1 °F 37.2 °F 29.82 in NE 23 mph 31 mph 93% 0.01 in 70.00 W/m2
14:34 39 °F 37.1 °F 29.82 in NNE 14 mph 32 mph 93% 0.01 in 86.00 W/m2
14:39 39.2 °F 37.3 °F 29.82 in NNE 19 mph 32 mph 93% 0.01 in 97.00 W/m2
14:44 39.1 °F 37.2 °F 29.82 in NE 16 mph 31 mph 93% 0.01 in 104.00 W/m2
14:49 39.3 °F 37.4 °F 29.82 in NE 27 mph 31 mph 93% 0.02 in 116.00 W/m2
14:54 39.4 °F 37.5 °F 29.82 in NNE 19 mph 32 mph 93% 0.01 in 135.00 W/m2
14:59 39.5 °F 37.6 °F 29.82 in NE 19 mph 32 mph 93% 0.01 in 127.00 W/m2
15:04 39.7 °F 37.8 °F 29.82 in NE 24 mph 32 mph 93% 0.01 in 141.00 W/m2
15:09 39.6 °F 37.5 °F 29.82 in North 18 mph 32 mph 92% 0.01 in 141.00 W/m2
15:14 39.7 °F 37.6 °F 29.82 in NNE 22 mph 30 mph 92% 0.02 in 141.00 W/m2
15:19 40 °F 37.9 °F 29.82 in NE 20 mph 30 mph 92% 0.02 in 146.00 W/m2
15:24 40.2 °F 38.1 °F 29.82 in NE 20 mph 30 mph 92% 0.02 in 144.00 W/m2
15:29 40.2 °F 38.1 °F 29.82 in NNE 21 mph 30 mph 92% 0.02 in 141.00 W/m2
15:34 40.4 °F 38.3 °F 29.83 in NNE 19 mph 30 mph 92% 0.02 in 132.00 W/m2
15:39 40.5 °F 38.1 °F 29.82 in NNE 17 mph 30 mph 91% 0.02 in 139.00 W/m2
15:44 40.7 °F 38.3 °F 29.82 in NE 19 mph 30 mph 91% 0.01 in 139.00 W/m2
15:49 40.8 °F 38.4 °F 29.83 in NE 14 mph 27 mph 91% 0.01 in 144.00 W/m2
15:54 41 °F 38.6 °F 29.83 in NNE 15 mph 30 mph 91% 0.01 in 149.00 W/m2
15:59 41.1 °F 38.4 °F 29.83 in NE 26 mph 30 mph 90% 0.01 in 153.00 W/m2
16:04 41.3 °F 38.3 °F 29.84 in NNE 19 mph 30 mph 89% 0.01 in 125.00 W/m2
16:09 41.4 °F 38.1 °F 29.84 in North 14 mph 30 mph 88% 0.01 in 139.00 W/m2
16:14 41.4 °F 38.1 °F 29.84 in NE 23 mph 31 mph 88% 0 in 144.00 W/m2
16:19 41.6 °F 38 °F 29.85 in NE 19 mph 32 mph 87% 0 in 163.00 W/m2
16:24 41.8 °F 37.9 °F 29.85 in NNE 19 mph 32 mph 86% 0 in 185.00 W/m2
16:29 42 °F 38.4 °F 29.85 in NE 20 mph 30 mph 87% 0 in 185.00 W/m2
16:34 42.1 °F 38.2 °F 29.85 in NNE 17 mph 28 mph 86% 0 in 165.00 W/m2
16:39 42 °F 37.8 °F 29.85 in NE 16 mph 29 mph 85% 0 in 146.00 W/m2
16:44 42.1 °F 37.9 °F 29.86 in NNE 22 mph 29 mph 85% 0 in 141.00 W/m2
16:49 42.1 °F 37.9 °F 29.86 in NE 13 mph 29 mph 85% 0 in 165.00 W/m2
16:54 42.1 °F 37.9 °F 29.86 in North 19 mph 29 mph 85% 0 in 171.00 W/m2
16:59 42.2 °F 38 °F 29.86 in NNE 16 mph 27 mph 85% 0 in 183.00 W/m2
17:04 42.3 °F 38.1 °F 29.86 in NNE 22 mph 27 mph 85% 0 in 162.00 W/m2
17:09 42.4 °F 37.9 °F 29.86 in NNE 14 mph 27 mph 84% 0 in 167.00 W/m2
17:14 42.5 °F 38 °F 29.87 in NNE 13 mph 25 mph 84% 0 in 137.00 W/m2
17:19 42.6 °F 38.1 °F 29.87 in NE 15 mph 25 mph 84% 0 in 111.00 W/m2
17:24 42.5 °F 37.7 °F 29.87 in NNE 24 mph 31 mph 83% 0 in 102.00 W/m2
17:29 42.6 °F 37.5 °F 29.87 in NNE 17 mph 31 mph 82% 0 in 77.00 W/m2
17:34 42.6 °F 37.2 °F 29.87 in NNE 16 mph 31 mph 81% 0 in 70.00 W/m2
17:39 42.5 °F 36.8 °F 29.87 in NE 17 mph 31 mph 80% 0 in 58.00 W/m2
17:44 42.4 °F 36.7 °F 29.88 in NE 10 mph 27 mph 80% 0 in 46.00 W/m2
17:49 42.4 °F 36.7 °F 29.88 in NE 17 mph 23 mph 80% 0 in 40.00 W/m2
17:54 42.4 °F 37 °F 29.88 in NNE 9 mph 23 mph 81% 0 in 37.00 W/m2
17:59 42.3 °F 36.9 °F 29.88 in North 15 mph 21 mph 81% 0 in 32.00 W/m2
18:04 42.2 °F 36.5 °F 29.88 in North 12 mph 21 mph 80% 0 in 28.00 W/m2
18:09 42.2 °F 36.5 °F 29.89 in NNE 14 mph 21 mph 80% 0 in 25.00 W/m2
18:14 42.1 °F 36.4 °F 29.89 in NNE 11 mph 21 mph 80% 0 in 21.00 W/m2
18:19 42.1 °F 36.4 °F 29.89 in NNE 12 mph 19 mph 80% 0 in 19.00 W/m2
18:24 42.2 °F 36.5 °F 29.89 in NNE 10 mph 19 mph 80% 0 in 16.00 W/m2
18:29 42.2 °F 36.5 °F 29.89 in NNE 10 mph 19 mph 80% 0 in 14.00 W/m2
18:34 42.2 °F 36.2 °F 29.89 in North 16 mph 19 mph 79% 0 in 14.00 W/m2
18:39 42.3 °F 36.3 °F 29.89 in NNE 10 mph 20 mph 79% 0 in 14.00 W/m2
18:44 42.4 °F 36 °F 29.89 in NNE 14 mph 20 mph 78% 0 in 14.00 W/m2
18:49 42.3 °F 36.3 °F 29.89 in NNE 15 mph 20 mph 79% 0 in 14.00 W/m2
18:54 42.2 °F 36.2 °F 29.89 in NNE 12 mph 20 mph 79% 0 in 14.00 W/m2
18:59 42.1 °F 36.4 °F 29.88 in NNE 11 mph 20 mph 80% 0 in 14.00 W/m2
19:04 42.1 °F 36.4 °F 29.89 in NE 13 mph 17 mph 80% 0 in 14.00 W/m2
19:09 42.2 °F 36.2 °F 29.89 in NE 5 mph 17 mph 79% 0 in 14.00 W/m2
19:14 42.3 °F 36.3 °F 29.89 in NNE 10 mph 17 mph 79% 0 in 14.00 W/m2
19:19 42.4 °F 36 °F 29.89 in NNE 13 mph 18 mph 78% 0 in 12.00 W/m2
19:24 42.6 °F 35.9 °F 29.89 in NNE 10 mph 18 mph 77% 0 in 12.00 W/m2
19:29 42.6 °F 35.9 °F 29.89 in NE 11 mph 18 mph 77% 0 in 16.00 W/m2
19:34 42.7 °F 36 °F 29.89 in NNE 13 mph 18 mph 77% 0 in 23.00 W/m2
19:39 42.8 °F 35.8 °F 29.89 in North 10 mph 16 mph 76% 0 in 23.00 W/m2
19:44 43 °F 36 °F 29.89 in North 12 mph 16 mph 76% 0 in 18.00 W/m2
19:49 43 °F 36 °F 29.89 in North 12 mph 16 mph 76% 0 in 14.00 W/m2
19:54 43 °F 36 °F 29.89 in North 9 mph 16 mph 76% 0 in 12.00 W/m2
19:59 43 °F 36 °F 29.89 in NNE 9 mph 13 mph 76% 0 in 11.00 W/m2
20:04 43.1 °F 36 °F 29.89 in NNE 8 mph 13 mph 76% 0 in 11.00 W/m2
20:09 43.1 °F 35.7 °F 29.89 in NNE 7 mph 13 mph 75% 0 in 7.00 W/m2
20:14 43.2 °F 35.8 °F 29.89 in NNE 8 mph 13 mph 75% 0 in 7.00 W/m2
20:19 43.3 °F 35.9 °F 29.89 in NNE 8 mph 12 mph 75% 0 in 5.00 W/m2
20:24 43.3 °F 35.9 °F 29.89 in NNE 6 mph 12 mph 75% 0 in 5.00 W/m2
20:29 43.3 °F 35.9 °F 29.89 in NNE 9 mph 12 mph 75% 0 in 0.00 W/m2
20:34 43.3 °F 35.9 °F 29.89 in NNE 5 mph 12 mph 75% 0 in 0.00 W/m2
20:39 43.2 °F 35.8 °F 29.90 in North 8 mph 12 mph 75% 0 in 0.00 W/m2
20:44 43.2 °F 35.8 °F 29.90 in NNW 9 mph 12 mph 75% 0 in 0.00 W/m2
20:49 43.1 °F 36 °F 29.90 in NNE 10 mph 12 mph 76% 0 in 0.00 W/m2
20:54 43.2 °F 35.5 °F 29.90 in ENE 13 mph 23 mph 74% 0 in 0.00 W/m2
20:59 43.6 °F 35.9 °F 29.90 in NNE 8 mph 23 mph 74% 0 in 0.00 W/m2
21:04 43.6 °F 35.9 °F 29.90 in NNE 11 mph 20 mph 74% 0 in 0.00 W/m2
21:09 43.6 °F 35.9 °F 29.91 in NNE 11 mph 20 mph 74% 0 in 0.00 W/m2
21:14 43.6 °F 35.9 °F 29.91 in NE 13 mph 15 mph 74% 0 in 0.00 W/m2
21:19 43.7 °F 37 °F 29.91 in NE 12 mph 21 mph 77% 0 in 0.00 W/m2
21:24 43.8 °F 35.4 °F 29.91 in NNE 12 mph 21 mph 72% 0 in 0.00 W/m2
21:29 43.8 °F 35.4 °F 29.91 in NNE 18 mph 20 mph 72% 0 in 0.00 W/m2
21:34 43.8 °F 35 °F 29.91 in NNE 13 mph 20 mph 71% 0 in 0.00 W/m2
21:39 43.9 °F 35.1 °F 29.91 in NNE 9 mph 20 mph 71% 0 in 0.00 W/m2
21:44 43.8 °F 34.6 °F 29.91 in NE 12 mph 20 mph 70% 0 in 0.00 W/m2
21:49 44 °F 34.5 °F 29.92 in NNE 9 mph 19 mph 69% 0 in 0.00 W/m2
21:54 44.2 °F 34.7 °F 29.92 in NE 12 mph 19 mph 69% 0 in 0.00 W/m2
21:59 44.1 °F 34.2 °F 29.93 in NNE 19 mph 22 mph 68% 0 in 0.00 W/m2
22:04 44.2 °F 34.7 °F 29.93 in NE 16 mph 22 mph 69% 0 in 0.00 W/m2
22:09 44.2 °F 33.9 °F 29.93 in NE 12 mph 22 mph 67% 0 in 0.00 W/m2
22:14 44.3 °F 33.7 °F 29.93 in NE 14 mph 27 mph 66% 0 in 0.00 W/m2
22:19 44.3 °F 34 °F 29.93 in NE 10 mph 27 mph 67% 0 in 0.00 W/m2
22:24 44 °F 34.5 °F 29.94 in ENE 15 mph 26 mph 69% 0 in 0.00 W/m2
22:29 43.4 °F 36 °F 29.94 in East 12 mph 26 mph 75% 0.01 in 0.00 W/m2
22:34 42.6 °F 36.5 °F 29.94 in East 7 mph 17 mph 79% 0.01 in 0.00 W/m2
22:39 42 °F 36.6 °F 29.94 in East 7 mph 16 mph 81% 0.01 in 0.00 W/m2
22:44 41.7 °F 36.9 °F 29.95 in East 3 mph 16 mph 83% 0.01 in 0.00 W/m2
22:49 41.3 °F 37.1 °F 29.95 in ESE 7 mph 9 mph 85% 0.01 in 0.00 W/m2
22:54 40.9 °F 37.3 °F 29.95 in East 4 mph 9 mph 87% 0.01 in 0.00 W/m2
22:59 40.6 °F 37.3 °F 29.95 in ESE 6 mph 9 mph 88% 0.01 in 0.00 W/m2
23:04 40.4 °F 37.4 °F 29.95 in East 8 mph 9 mph 89% 0.01 in 0.00 W/m2
23:09 40.3 °F 37.3 °F 29.95 in SE 5 mph 9 mph 89% 0.01 in 0.00 W/m2
23:14 40.2 °F 37.5 °F 29.95 in East 3 mph 9 mph 90% 0.01 in 0.00 W/m2
23:19 40.1 °F 37.4 °F 29.95 in ESE 7 mph 9 mph 90% 0.01 in 0.00 W/m2
23:24 40 °F 37.3 °F 29.95 in ESE 6 mph 9 mph 90% 0.01 in 0.00 W/m2
23:29 40 °F 37.6 °F 29.95 in East 4 mph 8 mph 91% 0 in 0.00 W/m2
23:34 40 °F 37.6 °F 29.95 in ENE 2 mph 9 mph 91% 0 in 0.00 W/m2
23:39 39.9 °F 37.5 °F 29.95 in ENE 9 mph 12 mph 91% 0 in 0.00 W/m2
23:44 40.1 °F 37.4 °F 29.95 in East 16 mph 18 mph 90% 0 in 0.00 W/m2
23:49 40.2 °F 36.9 °F 29.95 in ENE 10 mph 18 mph 88% 0 in 0.00 W/m2
23:54 40.1 °F 36.5 °F 29.95 in ENE 9 mph 18 mph 87% 0 in 0.00 W/m2
23:59 40 °F 36.4 °F 29.95 in ENE 12 mph 22 mph 87% 0.01 in 0.00 W/m2
Bismarck, North Dakota, USA
Compliments of Weather Underground - 4 mb